Latest Weather Observations for Brisbane

IDQ60901

Issued at 1:31 pm EST Friday 27 March 2015 (issued every 10 minutes, with the page automatically refreshed every 10 minutes)

About weather observations | Map of Brisbane area stations | Latest observations for Brisbane area | Other Formats
Station Details ID: 040913 Name: BRISBANE Lat: -27.48 Lon: 153.04 Height: 8.13 m
Data from the previous 72 hours. | See also: Recent months at Brisbane
Date/Time
EST
Tmp

°C
App
Tmp
°C
Dew
Point
°C
Rel
Hum
%
Delta-T

°C
Wind Press
QNH
hPa
Press
MSL
hPa
Rain
since
9 am
mm
Dir
 
Spd
km/h
Gust
km/h
Spd
kts
Gust
kts
27/01:00pm 29.2 32.4 21.7 64 5.0 E 7 17 4 9 1016.7 1016.7 0.0
27/12:30pm 30.4 34.0 20.6 55 6.5 NW 2 6 1 3 1016.8 1016.8 0.0
27/12:00pm 30.3 33.1 20.8 56 6.3 WSW 7 15 4 8 1017.5 1017.5 0.0
27/11:30am 29.8 33.0 21.2 60 5.7 WSW 6 9 3 5 1017.9 1017.9 0.0
27/11:00am 28.9 31.2 19.8 58 5.9 SSW 7 15 4 8 1018.4 1018.4 0.0
27/10:30am 28.8 31.1 19.4 56 6.1 SW 6 11 3 6 1018.5 1018.5 0.0
27/10:00am 27.5 30.6 21.1 68 4.2 WSW 6 13 3 7 1018.8 1018.8 0.0
27/09:30am 26.8 29.7 21.1 71 3.8 SW 7 13 4 7 1018.9 1018.9 0.0
27/09:00am 27.0 30.6 22.0 74 3.3 SW 6 13 3 7 1018.8 1018.8 0.0
27/08:30am 26.5 30.1 22.1 77 3.0 SSW 6 9 3 5 1018.7 1018.7 0.0
27/08:00am 25.8 30.2 22.1 80 2.5 SW 2 6 1 3 1018.5 1018.5 0.0
27/07:30am 24.3 28.2 21.8 86 1.7 SW 4 7 2 4 1018.4 1018.4 0.0
27/07:00am 23.9 28.0 22.2 90 1.1 SW 4 7 2 4 1017.9 1017.9 0.0
27/06:30am 23.4 28.1 22.0 92 0.9 CALM 0 0 0 0 1017.4 1017.4 0.0
27/06:00am 22.7 27.1 21.3 92 0.9 CALM 0 0 0 0 1017.1 1017.1 0.0
27/05:30am 22.6 26.9 21.1 91 1.0 CALM 0 0 0 0 1016.8 1016.8 0.0
27/05:00am 22.7 26.9 21.0 90 1.1 CALM 0 0 0 0 1016.6 1016.6 0.0
27/04:30am 22.9 27.1 21.0 89 1.2 CALM 0 0 0 0 1016.3 1016.3 0.0
27/04:00am 23.2 27.6 21.3 89 1.2 CALM 0 0 0 0 1016.3 1016.3 0.0
27/03:30am 23.3 27.8 21.6 90 1.1 CALM 0 2 0 1 1016.3 1016.3 0.0
27/03:00am 23.4 27.9 21.5 89 1.3 CALM 0 4 0 2 1016.3 1016.3 0.0
27/02:30am 23.6 28.1 21.5 88 1.4 CALM 0 4 0 2 1016.3 1016.3 0.0
27/02:00am 23.9 27.9 21.4 86 1.6 SSW 2 4 1 2 1016.4 1016.4 0.0
27/01:30am 24.3 28.4 21.6 85 1.8 SW 2 6 1 3 1016.7 1016.7 0.0
27/01:00am 24.5 28.6 21.6 84 1.9 SW 2 6 1 3 1017.1 1017.1 0.0
27/12:30am 25.0 29.3 21.9 83 2.1 S 2 4 1 2 1017.1 1017.1 0.0
27/12:00am 24.9 29.6 22.0 84 1.9 CALM 0 0 0 0 1017.2 1017.2 0.0
 
Date/Time
EST
Tmp

°C
App
Tmp
°C
Dew
Point
°C
Rel
Hum
%
Delta-T

°C
Wind Press
QNH
hPa
Press
MSL
hPa
Rain
since
9 am
mm
Dir
 
Spd
km/h
Gust
km/h
Spd
kts
Gust
kts
26/11:30pm 25.0 29.5 22.3 85 1.8 S 2 4 1 2 1017.5 1017.5 0.0
26/11:00pm 25.0 29.9 22.3 85 1.8 CALM 0 0 0 0 1017.5 1017.5 0.0
26/10:30pm 25.1 29.8 22.0 83 2.1 CALM 0 0 0 0 1017.7 1017.7 0.0
26/10:00pm 25.5 30.1 22.4 83 2.1 SW 2 4 1 2 1017.8 1017.8 0.0
26/09:30pm 25.9 30.6 22.6 82 2.2 NE 2 4 1 2 1017.7 1017.7 0.0
26/09:00pm 26.1 30.6 22.2 79 2.6 NNW 2 6 1 3 1017.7 1017.7 0.0
26/08:30pm 26.4 30.9 22.9 81 2.4 NW 4 7 2 4 1017.9 1017.9 0.0
26/08:00pm 26.5 30.4 23.0 81 2.4 NNE 7 15 4 8 1017.4 1017.4 0.0
26/07:30pm 26.5 30.8 22.6 79 2.6 NE 4 11 2 6 1017.2 1017.2 0.0
26/07:00pm 26.7 29.4 22.1 76 3.1 NE 11 22 6 12 1016.1 1016.1 0.0
26/06:30pm 26.9 30.6 22.3 76 3.1 NNE 6 13 3 7 1015.9 1015.9 0.0
26/06:00pm 26.8 30.5 22.2 76 3.1 NNE 6 11 3 6 1016.7 1016.7 0.0
26/05:30pm 26.9 30.4 21.9 74 3.3 NNE 6 15 3 8 1015.6 1015.6 0.0
26/05:00pm 27.1 30.3 21.6 72 3.7 NNE 7 17 4 9 1015.0 1015.0 0.0
26/04:30pm 27.6 29.9 21.4 69 4.1 NNE 11 22 6 12 1014.9 1014.9 0.0
26/04:00pm 28.3 30.7 21.6 67 4.5 NE 11 24 6 13 1014.5 1014.5 0.0
26/03:30pm 29.3 32.3 22.0 64 4.9 NNE 9 19 5 10 1014.9 1014.9 0.0
26/03:00pm 28.9 31.6 21.4 64 5.0 NE 9 19 5 10 1015.0 1015.0 0.0
26/02:30pm 29.9 32.3 21.6 61 5.6 NNE 11 19 6 10 1015.3 1015.3 0.0
26/02:00pm 29.5 31.2 21.7 63 5.2 ENE 15 24 8 13 1015.4 1015.4 0.0
26/01:30pm 29.9 32.6 22.1 63 5.3 NE 11 20 6 11 1015.8 1015.8 0.0
26/01:00pm 30.1 32.8 22.8 65 5.0 ENE 13 22 7 12 1016.2 1016.2 0.0
26/12:30pm 29.4 32.0 21.9 64 5.1 NE 11 20 6 11 1016.7 1016.7 0.0
26/12:00pm 29.6 32.4 22.3 65 4.9 NE 11 20 6 11 1017.0 1017.0 0.0
26/11:30am 29.9 33.4 22.1 63 5.3 NE 7 13 4 7 1017.3 1017.3 0.0
26/11:00am 30.1 33.7 23.0 65 4.9 NE 9 17 5 9 1017.6 1017.6 0.0
26/10:30am 30.1 34.1 22.8 65 5.0 N 6 13 3 7 1018.0 1018.0 0.0
26/10:00am 29.5 33.5 22.7 67 4.6 NNE 6 7 3 4 1018.2 1018.2 0.0
26/09:30am 28.3 32.2 21.8 68 4.4 NNE 4 9 2 5 1018.3 1018.3 0.0
26/09:00am 28.2 32.2 22.7 72 3.7 N 6 11 3 6 1018.1 1018.1 3.8
26/08:30am 27.0 30.9 22.6 77 3.0 NNE 6 9 3 5 1018.0 1018.0 3.8
26/08:00am 25.7 30.6 23.0 85 1.8 NE 2 6 1 3 1017.9 1017.9 3.8
26/07:30am 25.3 30.1 22.8 86 1.7 N 2 11 1 6 1017.8 1017.8 3.8
26/07:00am 24.9 28.7 22.4 86 1.7 NNW 6 11 3 6 1017.5 1017.5 3.8
26/06:30am 24.6 29.2 22.5 88 1.4 N 2 9 1 5 1017.1 1017.1 3.8
26/06:00am 24.2 29.1 22.3 89 1.3 CALM 0 6 0 3 1017.1 1017.1 3.8
26/05:30am 24.4 29.1 22.7 90 1.1 ENE 2 4 1 2 1016.7 1016.7 3.8
26/05:00am 24.4 29.9 23.4 94 0.7 CALM 0 4 0 2 1016.3 1016.3 3.8
26/04:30am 24.4 29.0 23.2 93 0.8 SSE 4 6 2 3 1016.0 1016.0 3.4
26/04:00am 24.3 29.6 23.1 93 0.8 CALM 0 0 0 0 1015.8 1015.8 3.4
26/03:30am 24.2 29.5 23.0 93 0.8 CALM 0 4 0 2 1015.6 1015.6 3.4
26/03:00am 24.3 28.9 23.1 93 0.8 ESE 4 7 2 4 1015.3 1015.3 3.4
26/02:30am 24.6 30.1 23.4 93 0.8 CALM 0 0 0 0 1015.6 1015.6 3.4
26/02:00am 24.4 29.8 23.2 93 0.8 CALM 0 0 0 0 1015.7 1015.7 3.4
26/01:30am 24.3 29.7 23.3 94 0.7 CALM 0 2 0 1 1015.8 1015.8 3.4
26/01:00am 24.1 29.4 23.1 94 0.7 CALM 0 2 0 1 1016.0 1016.0 3.4
26/12:30am 23.6 28.5 22.4 93 0.8 CALM 0 0 0 0 1016.3 1016.3 3.4
26/12:00am 23.5 27.1 22.1 92 0.9 ESE 6 9 3 5 1016.2 1016.2 3.4
 
Date/Time
EST
Tmp

°C
App
Tmp
°C
Dew
Point
°C
Rel
Hum
%
Delta-T

°C
Wind Press
QNH
hPa
Press
MSL
hPa
Rain
since
9 am
mm
Dir
 
Spd
km/h
Gust
km/h
Spd
kts
Gust
kts
25/11:30pm 23.6 27.6 22.0 91 1.1 ENE 4 7 2 4 1016.2 1016.2 3.4
25/11:00pm 23.5 27.0 21.9 91 1.1 E 6 6 3 3 1016.3 1016.3 3.4
25/10:30pm 23.8 27.6 22.4 92 0.9 ESE 6 9 3 5 1016.6 1016.6 3.4
25/10:00pm 24.1 28.6 22.9 93 0.8 ESE 4 7 2 4 1016.9 1016.9 2.4
25/09:30pm 24.9 27.5 22.6 87 1.5 E 13 24 7 13 1016.5 1016.5 1.0
25/09:00pm 26.6 32.0 23.3 82 2.2 CALM 0 4 0 2 1016.5 1016.5 0.0
25/08:30pm 26.5 31.2 23.4 83 2.1 ENE 4 9 2 5 1015.8 1015.8 0.0
25/08:00pm 26.4 30.5 23.3 83 2.1 NNE 7 17 4 9 1015.2 1015.2 0.0
25/07:30pm 26.6 30.7 23.3 82 2.3 NE 7 15 4 8 1014.9 1014.9 0.0
25/07:00pm 26.7 30.8 23.2 81 2.4 NE 7 13 4 7 1014.5 1014.5 0.0
25/06:30pm 26.9 31.0 23.2 80 2.5 NNE 7 19 4 10 1014.2 1014.2 0.0
25/06:00pm 27.1 30.7 23.1 79 2.7 NNE 9 19 5 10 1013.9 1013.9 0.0
25/05:30pm 27.3 30.9 23.1 78 2.9 NE 9 17 5 9 1013.7 1013.7 0.0
25/05:00pm 27.6 30.1 22.5 74 3.4 NE 13 24 7 13 1013.1 1013.1 0.0
25/04:30pm 28.3 31.5 22.3 70 4.1 NE 9 19 5 10 1013.1 1013.1 0.0
25/04:00pm 29.1 32.3 22.3 66 4.6 NE 9 20 5 11 1013.0 1013.0 0.0
25/03:30pm 29.6 32.7 22.8 67 4.6 NNE 11 19 6 10 1012.8 1012.8 0.0
25/03:00pm 29.9 33.5 23.1 67 4.7 NE 9 17 5 9 1013.0 1013.0 0.0
25/02:30pm 29.9 32.5 22.6 65 5.0 NE 13 20 7 11 1012.9 1012.9 0.0
25/02:00pm 30.4 33.9 22.8 64 5.2 NE 9 19 5 10 1012.9 1012.9 0.0
25/01:30pm 29.8 32.7 22.5 65 5.0 NE 11 17 6 9 1013.1 1013.1 0.0
25/01:00pm 30.4 33.6 22.3 62 5.5 ENE 9 17 5 9 1013.2 1013.2 0.0
25/12:30pm 30.2 33.5 21.8 60 5.7 NE 7 13 4 7 1013.6 1013.6 0.0
25/12:00pm 30.5 34.6 23.2 65 5.0 ENE 7 13 4 7 1014.0 1014.0 0.0
25/11:30am 30.6 34.1 21.1 57 6.4 NNE 4 6 2 3 1014.5 1014.5 0.0
25/11:00am 30.0 33.5 21.9 62 5.5 ENE 6 9 3 5 1014.8 1014.8 0.0
25/10:30am 29.6 32.5 20.7 58 5.9 N 6 9 3 5 1015.2 1015.2 0.0
25/10:00am 29.3 33.4 21.5 63 5.2 N 2 6 1 3 1015.4 1015.4 0.0
25/09:30am 28.4 32.0 21.2 65 4.8 NW 4 9 2 5 1015.5 1015.5 0.0
25/09:00am 27.5 30.4 20.6 66 4.5 NW 6 9 3 5 1015.6 1015.6 0.0
25/08:30am 27.0 30.6 21.3 71 3.8 NE 4 6 2 3 1015.5 1015.5 0.0
25/08:00am 25.2 29.5 21.1 78 2.7 CALM 0 0 0 0 1015.4 1015.4 0.0
25/07:30am 24.3 28.0 20.8 81 2.3 NE 2 6 1 3 1015.2 1015.2 0.0
25/07:00am 24.0 27.8 20.9 83 2.0 NE 2 4 1 2 1014.9 1014.9 0.0
25/06:30am 23.3 27.0 20.8 86 1.6 NE 2 4 1 2 1014.7 1014.7 0.0
25/06:00am 23.0 27.1 20.7 87 1.5 CALM 0 0 0 0 1014.4 1014.4 0.0
25/05:30am 23.1 27.1 20.6 86 1.6 CALM 0 2 0 1 1014.1 1014.1 0.0
25/05:00am 23.0 27.0 20.5 86 1.6 CALM 0 0 0 0 1014.0 1014.0 0.0
25/04:30am 23.1 26.7 20.6 86 1.6 NNW 2 7 1 4 1013.6 1013.6 0.0
25/04:00am 22.9 26.5 20.6 87 1.5 NNW 2 7 1 4 1013.0 1013.0 0.0
25/03:30am 23.0 26.2 20.5 86 1.6 NNE 4 11 2 6 1012.7 1012.7 0.0
25/03:00am 23.2 26.5 20.7 86 1.6 NNE 4 7 2 4 1012.9 1012.9 0.0
25/02:30am 23.2 27.2 20.5 85 1.8 CALM 0 4 0 2 1013.0 1013.0 0.0
25/02:00am 23.4 26.7 20.7 85 1.8 NNW 4 9 2 5 1013.5 1013.5 0.0
25/01:30am 22.7 26.5 20.2 86 1.6 CALM 0 0 0 0 1013.8 1013.8 0.0
25/01:00am 23.4 27.1 20.7 85 1.8 N 2 7 1 4 1013.7 1013.7 0.0
25/12:30am 23.6 26.9 20.7 84 1.9 NNW 4 9 2 5 1013.8 1013.8 0.0
25/12:00am 23.8 26.7 20.7 83 2.0 N 6 13 3 7 1014.0 1014.0 0.0
 
Date/Time
EST
Tmp

°C
App
Tmp
°C
Dew
Point
°C
Rel
Hum
%
Delta-T

°C
Wind Press
QNH
hPa
Press
MSL
hPa
Rain
since
9 am
mm
Dir
 
Spd
km/h
Gust
km/h
Spd
kts
Gust
kts
24/11:30pm 24.0 27.4 20.9 83 2.0 N 4 15 2 8 1014.0 1014.0 0.0
24/11:00pm 24.1 27.5 21.0 83 2.0 N 4 11 2 6 1014.3 1014.3 0.0
24/10:30pm 24.2 27.6 20.9 82 2.2 N 4 9 2 5 1014.7 1014.7 0.0
24/10:00pm 24.5 27.6 21.0 81 2.3 N 6 13 3 7 1014.8 1014.8 0.0
24/09:30pm 24.6 28.0 20.9 80 2.4 N 4 15 2 8 1014.8 1014.8 0.0
24/09:00pm 24.9 27.8 21.0 79 2.6 N 7 15 4 8 1015.1 1015.1 0.0
24/08:30pm 25.0 28.1 21.1 79 2.6 NNE 6 9 3 5 1015.1 1015.1 0.0
24/08:00pm 25.1 28.3 21.2 79 2.6 NNE 6 11 3 6 1014.9 1014.9 0.0
24/07:30pm 25.2 28.1 21.1 78 2.7 NNE 7 20 4 11 1014.3 1014.3 0.0
24/07:00pm 25.3 28.4 21.0 77 2.8 NNE 6 9 3 5 1013.8 1013.8 0.0
24/06:30pm 25.4 28.2 20.9 76 3.0 NNE 7 11 4 6 1013.4 1013.4 0.0
24/06:00pm 25.8 28.0 20.4 72 3.5 NE 9 17 5 9 1013.1 1013.1 0.0
24/05:30pm 26.6 29.1 20.2 68 4.2 NNE 7 17 4 9 1012.7 1012.7 0.0
24/05:00pm 27.4 29.1 20.2 65 4.7 NE 11 17 6 9 1012.6 1012.6 0.0
24/04:30pm 27.8 30.0 19.6 61 5.3 NE 7 15 4 8 1012.6 1012.6 0.0
24/04:00pm 28.7 31.3 20.4 60 5.5 NNE 7 19 4 10 1012.5 1012.5 0.0
24/03:30pm 29.1 31.3 20.3 59 5.8 NE 9 15 5 8 1012.5 1012.5 0.0
24/03:00pm 29.1 31.3 20.3 59 5.8 NE 9 13 5 7 1012.6 1012.6 0.0
24/02:30pm 30.1 33.1 21.2 59 6.0 NE 7 13 4 7 1012.8 1012.8 0.0
24/02:00pm 29.6 32.1 21.0 60 5.7 ENE 9 13 5 7 1013.2 1013.2 0.0

Latest Capital City Observations: Canberra | Sydney | Melbourne | Brisbane | Adelaide | Perth | Hobart | Darwin

Other Formats:

Comma delimited format used in spreadsheet applications
http://www.bom.gov.au/fwo/IDQ60901/IDQ60901.94576.axf

JavaScript Object Notation format (JSON) in row-major order
http://www.bom.gov.au/fwo/IDQ60901/IDQ60901.94576.json